Pagina principale
METAR-TAF:

METAR-TAF

Aeroporti :

Polokwane, Sudafrica

latitudine: 23-50-43S, longitudine: 29-27-31E, altezza: 1242 m

Osservazione

Il bollettino è stato emesso 33 minuti fa, alle 09:00 UTC
Vento 3 kt da sud/sud-est
Temperature 17°C
Umidità 48%
Pressione 1028 hPa
Visibilità 10 km o più
Poco nuvoloso ad un'altezza di 2500 ft

METAR: FAPP 070900Z 15003KT 9999 FEW025 17/06 Q1028 NOSIG

Ora: 11:33 (09:33 UTC)

Previsione

Il bollettino è stato emesso 2 ore e 23 minuti fa, alle 07:10 UTC
Previsione valida dal 07 alle 07 UTC al 07 alle 18 UTC
Vento 3 kt da direzioni variabili
Visibilità 10 km o più
Nubi sparse ad un'altezza di 2500 ft
Evoluzione graduale
dal 07 alle 09 UTC al 07 alle 11 UTC
Vento 8 kt da est
Evoluzione graduale
dal 07 alle 13 UTC al 07 alle 15 UTC
Visibilità 10 km o più
nessuna nube inferiore a 1500 m e nessun cumulonembo

TAF: FAPP 070710Z 0707/0718 VRB03KT 9999 SCT025 TX20/0712Z TN11/0718Z BECMG 0709/0711 09008KT BECMG 0713/0715 CAVOK

Osservazioni e previsioni meteorologiche di più di 4000 aeroporti (messaggi METAR e TAF).

Le stazioni disponibili sono rappresentate dai dischi gialli e rossi sulla carta.

Puntare il mouse per vedere il nome della stazione.

Clicca sopra per visualizzare le osservazioni e previsioni meteorologiche.

Per cambiare la mappa : fare clic sui pulsanti verdi con una croce nera per ingrandire, il pulsante verde con un trattino per diminuire, o sulla freccia verde per le mappe adiacenti.


METAR-TAF: